createdAt,value
2023-05-12T00:02:23.960Z,100200.78
2023-05-12T00:04:50.876Z,100208.22
2023-05-12T00:07:19.214Z,100188.50
2023-05-12T00:09:45.937Z,100231.53
2023-05-12T00:12:13.058Z,100227.66
2023-05-12T00:14:39.759Z,100226.19
2023-05-12T00:17:06.773Z,100217.28
2023-05-12T00:19:34.666Z,100195.59
2023-05-12T00:22:03.119Z,100201.09
2023-05-12T00:24:31.635Z,100174.88
2023-05-12T00:26:58.673Z,100212.44
2023-05-12T00:29:25.418Z,100184.94
2023-05-12T00:31:53.258Z,100210.31
2023-05-12T00:34:20.688Z,100189.78
2023-05-12T00:36:47.338Z,100219.88
2023-05-12T00:39:14.388Z,100211.13
2023-05-12T00:41:41.464Z,100209.53
2023-05-12T00:44:08.384Z,100200.78
2023-05-12T00:46:35.374Z,100191.41
2023-05-12T00:49:02.060Z,100199.81
2023-05-12T00:51:28.789Z,100210.19
2023-05-12T00:53:57.701Z,100191.06
2023-05-12T00:56:24.431Z,100196.56
2023-05-12T00:58:51.789Z,100192.72
2023-05-12T01:01:19.301Z,100165.22
2023-05-12T01:03:49.578Z,100168.41
2023-05-12T01:06:43.510Z,100193.19
2023-05-12T01:09:11.628Z,100174.72
2023-05-12T01:11:39.017Z,100137.66
2023-05-12T01:14:06.420Z,100172.13
2023-05-12T01:16:41.128Z,100198.53
2023-05-12T01:19:10.465Z,100188.81
2023-05-12T01:21:37.718Z,100198.69
2023-05-12T01:24:09.614Z,100170.03
2023-05-12T01:26:39.148Z,100188.81
2023-05-12T01:29:06.276Z,100127.97
2023-05-12T01:31:34.336Z,100149.19
2023-05-12T01:34:01.535Z,100195.94
2023-05-12T01:36:29.965Z,100182.19
2023-05-12T01:38:57.220Z,100183.31
2023-05-12T01:41:23.977Z,100179.09
2023-05-12T01:43:51.326Z,100189.94
2023-05-12T01:46:18.436Z,100193.69
2023-05-12T01:48:45.958Z,100144.47
2023-05-12T01:51:13.771Z,100175.22
2023-05-12T01:53:41.195Z,100205.97
2023-05-12T01:56:07.917Z,100198.84
2023-05-12T01:58:35.914Z,100201.25
2023-05-12T02:01:03.958Z,100138.47
2023-05-12T02:03:32.012Z,100153.34
2023-05-12T02:05:59.573Z,100171.34
2023-05-12T02:08:26.453Z,100180.56
2023-05-12T02:11:07.289Z,100202.41
2023-05-12T02:13:34.993Z,100197.72
2023-05-12T02:16:03.285Z,100190.09
2023-05-12T02:18:30.472Z,100190.91
2023-05-12T02:20:59.815Z,100171.50
2023-05-12T02:23:27.595Z,100137.31
2023-05-12T02:25:56.737Z,100170.50
2023-05-12T02:28:23.436Z,100170.72
2023-05-12T02:30:50.912Z,100153.50
2023-05-12T02:33:20.586Z,100191.72
2023-05-12T02:35:48.211Z,100139.59
2023-05-12T02:38:17.308Z,100198.22
2023-05-12T02:40:48.190Z,100190.25
2023-05-12T02:43:16.546Z,100203.56
2023-05-12T02:45:43.427Z,100175.53
2023-05-12T02:48:11.746Z,100166.50
2023-05-12T02:50:38.549Z,100123.25
2023-05-12T02:53:06.413Z,100159.34
2023-05-12T02:55:34.058Z,100165.84
2023-05-12T02:58:00.774Z,100169.06
2023-05-12T03:00:30.622Z,100183.47
2023-05-12T03:02:58.027Z,100166.50
2023-05-12T03:05:25.041Z,100184.59
2023-05-12T03:07:52.224Z,100173.94
2023-05-12T03:10:19.288Z,100160.34
2023-05-12T03:12:47.631Z,100170.50
2023-05-12T03:15:16.008Z,100131.50
2023-05-12T03:17:44.148Z,100167.13
2023-05-12T03:20:13.990Z,100150.28
2023-05-12T03:22:41.556Z,100162.44
2023-05-12T03:25:10.264Z,100178.78
2023-05-12T03:27:37.980Z,100168.09
2023-05-12T03:30:05.907Z,100175.22
2023-05-12T03:32:36.265Z,100184.94
2023-05-12T03:35:03.180Z,100145.09
2023-05-12T03:37:30.727Z,100131.19
2023-05-12T03:39:58.600Z,100186.38
2023-05-12T03:42:25.873Z,100144.28
2023-05-12T03:44:55.620Z,100160.03
2023-05-12T03:47:22.517Z,100199.50
2023-05-12T03:49:49.581Z,100162.75
2023-05-12T03:52:17.301Z,100184.78
2023-05-12T03:54:47.461Z,100174.56
2023-05-12T03:57:15.593Z,100159.72
2023-05-12T03:59:42.500Z,100165.34
2023-05-12T04:02:12.132Z,100174.41
2023-05-12T04:04:39.881Z,100177.97
2023-05-12T04:07:09.778Z,100144.78
2023-05-12T04:09:36.884Z,100137.66
2023-05-12T04:12:04.709Z,100163.72
2023-05-12T04:14:42.089Z,100141.53
2023-05-12T04:17:09.782Z,100173.94
2023-05-12T04:19:36.521Z,100179.75
2023-05-12T04:22:03.823Z,100153.69
2023-05-12T04:24:33.048Z,100188.50
2023-05-12T04:27:00.030Z,100179.41
2023-05-12T04:29:30.371Z,100178.47
2023-05-12T04:32:00.544Z,100154.97
2023-05-12T04:34:28.117Z,100143.47
2023-05-12T04:36:56.449Z,100143.47
2023-05-12T04:39:23.886Z,100161.28
2023-05-12T04:41:51.044Z,100179.25
2023-05-12T04:44:19.707Z,100177.81
2023-05-12T04:46:47.348Z,100211.16
2023-05-12T04:49:17.715Z,100188.31
2023-05-12T04:51:45.383Z,100197.84
2023-05-12T04:54:13.576Z,100192.00
2023-05-12T04:56:40.737Z,100184.88
2023-05-12T04:59:08.042Z,100213.72
2023-05-12T05:01:35.828Z,100186.34
2023-05-12T05:04:02.761Z,100209.63
2023-05-12T05:06:30.827Z,100188.75
2023-05-12T05:08:59.223Z,100199.09
2023-05-12T05:11:26.156Z,100217.22
2023-05-12T05:13:53.425Z,100182.91
2023-05-12T05:16:21.070Z,100202.97
2023-05-12T05:18:49.415Z,100212.19
2023-05-12T05:21:16.902Z,100181.94
2023-05-12T05:23:45.215Z,100221.75
2023-05-12T05:26:12.968Z,100203.78
2023-05-12T05:28:40.142Z,100203.09
2023-05-12T05:31:08.335Z,100230.47
2023-05-12T05:33:35.466Z,100231.72
2023-05-12T05:36:04.023Z,100217.81
2023-05-12T05:38:33.113Z,100238.53
2023-05-12T05:41:00.212Z,100236.59
2023-05-12T05:43:27.791Z,100236.91
2023-05-12T05:45:56.003Z,100225.56
2023-05-12T05:48:26.503Z,100206.44
2023-05-12T05:50:54.528Z,100214.84
2023-05-12T05:53:27.757Z,100238.50
2023-05-12T05:55:55.472Z,100162.28
2023-05-12T05:58:25.458Z,100231.50
2023-05-12T06:00:56.593Z,100240.44
2023-05-12T06:03:24.260Z,100248.84
2023-05-12T06:05:51.197Z,100248.69
2023-05-12T06:08:17.967Z,100229.22
2023-05-12T06:10:45.322Z,100238.44
2023-05-12T06:13:12.825Z,100250.13
2023-05-12T06:15:40.466Z,100258.53
2023-05-12T06:18:07.556Z,100237.81
2023-05-12T06:20:37.096Z,100214.78
2023-05-12T06:23:04.788Z,100237.16
2023-05-12T06:25:33.653Z,100253.53
2023-05-12T06:28:01.148Z,100263.41
2023-05-12T06:30:30.042Z,100257.91
2023-05-12T06:32:57.751Z,100257.09
2023-05-12T06:35:25.491Z,100251.25
2023-05-12T06:37:52.558Z,100225.63
2023-05-12T06:40:19.799Z,100254.66
2023-05-12T06:42:47.206Z,100226.13
2023-05-12T06:45:19.740Z,100263.41
2023-05-12T06:47:49.391Z,100265.19
2023-05-12T06:50:17.315Z,100257.91
2023-05-12T06:52:45.369Z,100195.66
2023-05-12T06:55:12.526Z,100239.63
2023-05-12T06:57:41.469Z,100267.97
2023-05-12T07:00:15.665Z,100267.97
2023-05-12T07:02:42.480Z,100259.84
2023-05-12T07:05:11.664Z,100265.34
2023-05-12T07:07:38.585Z,100274.09
2023-05-12T07:10:07.615Z,100280.56
2023-05-12T07:12:35.907Z,100275.09
2023-05-12T07:15:03.348Z,100272.19
2023-05-12T07:17:31.457Z,100262.31
2023-05-12T07:20:01.339Z,100279.31
2023-05-12T07:22:29.938Z,100258.25
2023-05-12T07:24:57.326Z,100277.06
2023-05-12T07:27:24.339Z,100242.69
2023-05-12T07:29:51.574Z,100275.09
2023-05-12T07:32:18.296Z,100260.06
2023-05-12T07:34:45.134Z,100252.75
2023-05-12T07:37:11.924Z,100279.81
2023-05-12T07:39:39.821Z,100276.25
2023-05-12T07:42:07.379Z,100279.31
2023-05-12T07:44:36.497Z,100278.16
2023-05-12T07:47:04.933Z,100274.63
2023-05-12T07:49:32.136Z,100235.28
2023-05-12T07:51:59.085Z,100267.81
2023-05-12T07:54:27.213Z,100246.13
2023-05-12T07:56:54.477Z,100271.06
2023-05-12T07:59:21.527Z,100262.81
2023-05-12T08:01:49.541Z,100251.78
2023-05-12T08:04:17.531Z,100258.59
2023-05-12T08:06:45.761Z,100268.47
2023-05-12T08:09:12.808Z,100264.44
2023-05-12T08:11:39.739Z,100258.13
2023-05-12T08:14:07.095Z,100264.13
2023-05-12T08:16:34.165Z,100207.41
2023-05-12T08:19:01.390Z,100265.56
2023-05-12T08:21:28.925Z,100259.56
2023-05-12T08:23:59.716Z,100265.44
2023-05-12T08:26:27.761Z,100212.44
2023-05-12T08:28:54.775Z,100263.31
2023-05-12T08:31:21.571Z,100250.84
2023-05-12T08:33:51.942Z,100223.31
2023-05-12T08:36:26.804Z,100254.56
2023-05-12T08:38:56.506Z,100249.22
2023-05-12T08:41:35.806Z,100276.44
2023-05-12T08:44:02.912Z,100267.69
2023-05-12T08:46:31.605Z,100279.19
2023-05-12T08:48:59.176Z,100225.22
2023-05-12T08:51:26.405Z,100253.72
2023-05-12T08:53:53.619Z,100283.53
2023-05-12T08:58:50.930Z,100285.94
2023-05-12T09:01:18.427Z,100284.34
2023-05-12T09:03:46.225Z,100260.34
2023-05-12T09:06:13.624Z,100290.66
2023-05-12T09:08:40.758Z,100274.78
2023-05-12T09:11:07.937Z,100285.00
2023-05-12T09:13:53.993Z,100283.59
2023-05-12T09:16:25.163Z,100285.84
2023-05-12T09:18:56.999Z,100277.25
2023-05-12T09:21:24.198Z,100258.28
2023-05-12T09:23:58.743Z,100287.84
2023-05-12T09:26:27.597Z,100275.03
2023-05-12T09:29:09.952Z,100245.69
2023-05-12T09:31:39.410Z,100284.75
2023-05-12T09:34:09.561Z,100284.75
2023-05-12T09:36:37.232Z,100262.88
2023-05-12T09:39:07.036Z,100273.25
2023-05-12T09:41:36.954Z,100276.50
2023-05-12T09:44:07.375Z,100262.50
2023-05-12T09:46:34.780Z,100246.00
2023-05-12T09:49:03.760Z,100262.50
2023-05-12T09:51:33.454Z,100275.84
2023-05-12T09:54:01.287Z,100282.97
2023-05-12T09:56:29.941Z,100250.53
2023-05-12T09:59:00.103Z,100271.16
2023-05-12T10:01:28.772Z,100256.56
2023-05-12T10:03:57.353Z,100246.03
2023-05-12T10:06:34.221Z,100259.13
2023-05-12T10:09:20.154Z,100285.06
2023-05-12T10:11:50.635Z,100272.59
2023-05-12T10:14:19.326Z,100279.88
2023-05-12T10:16:47.458Z,100289.31
2023-05-12T10:19:15.004Z,100261.53
2023-05-12T10:21:43.487Z,100282.50
2023-05-12T10:24:10.453Z,100276.81
2023-05-12T10:26:37.574Z,100250.88
2023-05-12T10:29:04.504Z,100273.91
2023-05-12T10:31:31.633Z,100260.47
2023-05-12T10:34:01.007Z,100202.47
2023-05-12T10:36:27.721Z,100281.38
2023-05-12T10:38:55.230Z,100279.94
2023-05-12T10:41:32.981Z,100288.00
2023-05-12T10:44:00.071Z,100278.94
2023-05-12T10:46:29.299Z,100264.38
2023-05-12T10:49:03.423Z,100277.97
2023-05-12T10:51:33.172Z,100244.78
2023-05-12T10:54:03.904Z,100290.75
2023-05-12T10:56:41.069Z,100233.59
2023-05-12T10:59:19.697Z,100236.53
2023-05-12T11:02:01.785Z,100279.78
2023-05-12T11:04:48.301Z,100282.69
2023-05-12T11:07:16.684Z,100238.63
2023-05-12T11:09:57.456Z,100280.91
2023-05-12T11:12:33.317Z,100207.19
2023-05-12T11:15:04.109Z,100226.59
2023-05-12T11:17:31.015Z,100216.09
2023-05-12T11:19:58.264Z,100243.81
2023-05-12T11:22:25.174Z,100260.34
2023-05-12T11:24:53.243Z,100262.59
2023-05-12T11:27:22.245Z,100265.97
2023-05-12T11:29:59.366Z,100286.56
2023-05-12T11:32:26.918Z,100275.25
2023-05-12T11:34:53.793Z,100279.75
2023-05-12T11:37:22.914Z,100276.03
2023-05-12T11:39:49.766Z,100264.22
2023-05-12T11:42:19.767Z,100217.53
2023-05-12T11:44:50.686Z,100262.41
2023-05-12T11:47:19.089Z,100278.44
2023-05-12T11:49:53.322Z,100252.50
2023-05-12T11:52:20.867Z,100305.63
2023-05-12T11:54:57.046Z,100277.00
2023-05-12T11:57:32.912Z,100302.75
2023-05-12T12:00:01.799Z,100297.09
2023-05-12T12:02:33.770Z,100298.84
2023-05-12T12:05:00.965Z,100286.06
2023-05-12T12:07:34.413Z,100257.34
2023-05-12T12:10:17.848Z,100275.22
2023-05-12T12:12:45.011Z,100299.97
2023-05-12T12:15:12.383Z,100306.28
2023-05-12T12:17:40.682Z,100257.34
2023-05-12T12:20:10.213Z,100271.47
2023-05-12T12:22:37.067Z,100302.88
2023-05-12T12:25:06.463Z,100307.09
2023-05-12T12:27:33.907Z,100310.50
2023-05-12T12:30:01.314Z,100311.47
2023-05-12T12:32:28.152Z,100299.16
2023-05-12T12:34:59.896Z,100269.47
2023-05-12T12:37:27.361Z,100308.56
2023-05-12T12:39:55.773Z,100322.16
2023-05-12T12:42:23.351Z,100302.56
2023-05-12T12:44:51.660Z,100285.84
2023-05-12T12:47:19.042Z,100308.56
2023-05-12T12:49:46.364Z,100295.06
2023-05-12T12:52:13.153Z,100312.09
2023-05-12T12:54:40.592Z,100287.97
2023-05-12T12:57:08.530Z,100292.66
2023-05-12T12:59:35.850Z,100283.19
2023-05-12T13:02:02.946Z,100325.22
2023-05-12T13:04:32.336Z,100267.34
2023-05-12T13:06:59.673Z,100314.53
2023-05-12T13:09:27.256Z,100323.59
2023-05-12T13:11:54.053Z,100325.53
2023-05-12T13:14:21.704Z,100325.38
2023-05-12T13:16:49.146Z,100318.22
2023-05-12T13:19:16.228Z,100335.72
2023-05-12T13:21:43.222Z,100301.81
2023-05-12T13:24:10.730Z,100341.53
2023-05-12T13:26:37.482Z,100335.63
2023-05-12T13:29:04.437Z,100333.53
2023-05-12T13:31:31.823Z,100334.50
2023-05-12T13:33:59.623Z,100322.19
2023-05-12T13:36:27.296Z,100322.66
2023-05-12T13:38:56.369Z,100301.63
2023-05-12T13:41:23.550Z,100313.63
2023-05-12T13:43:51.216Z,100318.47
2023-05-12T13:46:18.032Z,100297.41
2023-05-12T13:48:47.124Z,100327.59
2023-05-12T13:51:14.558Z,100312.97
2023-05-12T13:53:44.404Z,100304.47
2023-05-12T13:56:19.210Z,100320.31
2023-05-12T13:58:46.578Z,100292.41
2023-05-12T14:01:14.173Z,100305.06
2023-05-12T14:03:45.798Z,100255.16
2023-05-12T14:06:13.043Z,100259.38
2023-05-12T14:08:44.404Z,100254.81
2023-05-12T14:11:12.348Z,100269.09
2023-05-12T14:13:39.437Z,100246.91
2023-05-12T14:16:06.857Z,100264.72
2023-05-12T14:18:35.407Z,100315.47
2023-05-12T14:21:02.241Z,100290.66
2023-05-12T14:23:29.248Z,100294.06
2023-05-12T14:25:59.307Z,100315.97
2023-05-12T14:28:26.421Z,100289.16
2023-05-12T14:30:53.756Z,100290.19
2023-05-12T14:33:20.906Z,100306.06
2023-05-12T14:35:55.618Z,100295.00
2023-05-12T14:38:31.332Z,100321.13
2023-05-12T14:40:58.807Z,100327.59
2023-05-12T14:43:26.259Z,100337.34
2023-05-12T14:45:55.884Z,100321.59
2023-05-12T14:48:23.990Z,100314.13
2023-05-12T14:50:54.670Z,100326.31
2023-05-12T14:53:21.831Z,100340.91
2023-05-12T14:55:53.416Z,100317.56
2023-05-12T14:58:22.036Z,100309.41
2023-05-12T15:00:51.055Z,100314.47
2023-05-12T15:03:19.492Z,100334.25
2023-05-12T15:06:04.705Z,100332.63
2023-05-12T15:08:32.338Z,100320.97
2023-05-12T15:10:59.708Z,100337.81
2023-05-12T15:13:26.806Z,100335.56
2023-05-12T15:15:55.304Z,100335.06
2023-05-12T15:18:24.901Z,100311.09
2023-05-12T15:20:52.598Z,100338.97
2023-05-12T15:23:20.062Z,100334.41
2023-05-12T15:25:47.363Z,100345.28
2023-05-12T15:28:15.625Z,100335.91
2023-05-12T15:30:46.508Z,100344.94
2023-05-12T15:33:13.839Z,100332.19
2023-05-12T15:35:41.827Z,100341.91
2023-05-12T15:38:09.251Z,100352.56
2023-05-12T15:40:36.640Z,100295.34
2023-05-12T15:43:07.806Z,100349.34
2023-05-12T15:45:43.452Z,100326.66
2023-05-12T15:48:10.999Z,100349.84
2023-05-12T15:50:38.454Z,100325.38
2023-05-12T15:53:08.280Z,100324.41
2023-05-12T15:55:35.151Z,100322.31
2023-05-12T15:58:03.637Z,100269.91
2023-05-12T16:00:30.678Z,100308.34
2023-05-12T16:02:58.059Z,100291.53
2023-05-12T16:05:25.061Z,100343.53
2023-05-12T16:07:54.587Z,100299.47
2023-05-12T16:10:22.402Z,100325.72
2023-05-12T16:12:49.520Z,100327.97
2023-05-12T16:15:16.232Z,100345.81
2023-05-12T16:17:43.197Z,100313.88
2023-05-12T16:20:10.741Z,100349.53
2023-05-12T16:22:37.710Z,100340.00
2023-05-12T16:25:09.632Z,100340.00
2023-05-12T16:27:36.891Z,100338.69
2023-05-12T16:30:03.845Z,100319.38
2023-05-12T16:32:31.919Z,100302.84
2023-05-12T16:34:59.469Z,100350.81
2023-05-12T16:37:28.414Z,100344.19
2023-05-12T16:39:55.938Z,100340.31
2023-05-12T16:42:23.262Z,100334.81
2023-05-12T16:44:50.235Z,100337.72
2023-05-12T16:47:17.900Z,100330.91
2023-05-12T16:49:45.304Z,100345.97
2023-05-12T16:52:12.982Z,100341.59
2023-05-12T16:54:39.989Z,100336.56
2023-05-12T16:57:06.667Z,100362.34
2023-05-12T16:59:33.597Z,100351.97
2023-05-12T17:02:01.416Z,100345.50
2023-05-12T17:04:28.799Z,100346.75
2023-05-12T17:06:55.942Z,100361.84
2023-05-12T17:09:23.229Z,100336.72
2023-05-12T17:11:50.541Z,100367.66
2023-05-12T17:14:19.467Z,100280.63
2023-05-12T17:16:46.910Z,100349.00
2023-05-12T17:19:14.450Z,100355.31
2023-05-12T17:21:42.352Z,100365.84
2023-05-12T17:24:09.631Z,100352.56
2023-05-12T17:26:39.595Z,100371.38
2023-05-12T17:29:07.299Z,100377.69
2023-05-12T17:31:34.955Z,100379.94
2023-05-12T17:34:01.868Z,100363.75
2023-05-12T17:36:29.366Z,100344.91
2023-05-12T17:38:56.630Z,100361.94
2023-05-12T17:41:23.692Z,100365.53
2023-05-12T17:43:50.615Z,100370.25
2023-05-12T17:46:17.626Z,100377.06
2023-05-12T17:48:44.574Z,100361.66
2023-05-12T17:51:12.034Z,100392.94
2023-05-12T17:53:39.952Z,100387.25
2023-05-12T17:56:07.880Z,100373.50
2023-05-12T17:58:34.615Z,100366.84
2023-05-12T18:01:02.795Z,100384.97
2023-05-12T18:03:30.305Z,100377.06
2023-05-12T18:05:57.136Z,100391.28
2023-05-12T18:08:23.934Z,100385.31
2023-05-12T18:10:51.559Z,100397.63
2023-05-12T18:13:18.358Z,100398.28
2023-05-12T18:15:45.776Z,100397.63
2023-05-12T18:18:14.490Z,100399.41
2023-05-12T18:20:41.335Z,100402.81
2023-05-12T18:23:09.938Z,100405.41
2023-05-12T18:25:37.294Z,100378.50
2023-05-12T18:28:06.826Z,100367.31
2023-05-12T18:30:33.700Z,100384.97
2023-05-12T18:33:00.673Z,100397.31
2023-05-12T18:35:28.144Z,100398.91
2023-05-12T18:37:56.728Z,100396.50
2023-05-12T18:40:24.092Z,100368.59
2023-05-12T18:42:51.470Z,100406.06
2023-05-12T18:45:19.883Z,100406.69
2023-05-12T18:47:47.602Z,100401.84
2023-05-12T18:50:15.406Z,100391.44
2023-05-12T18:52:43.393Z,100420.47
2023-05-12T18:55:11.214Z,100425.78
2023-05-12T18:57:40.611Z,100399.22
2023-05-12T19:00:09.848Z,100410.22
2023-05-12T19:02:37.643Z,100412.00
2023-05-12T19:05:06.017Z,100370.50
2023-05-12T19:07:32.824Z,100406.03
2023-05-12T19:10:00.260Z,100417.03
2023-05-12T19:12:27.318Z,100442.94
2023-05-12T19:14:54.387Z,100440.34
2023-05-12T19:17:22.357Z,100425.13
2023-05-12T19:19:51.018Z,100425.25
2023-05-12T19:22:18.174Z,100452.50
2023-05-12T19:24:45.303Z,100410.13
2023-05-12T19:27:12.464Z,100411.78
2023-05-12T19:29:39.476Z,100457.56
2023-05-12T19:32:07.054Z,100457.09
2023-05-12T19:34:34.290Z,100438.25
2023-05-12T19:37:01.084Z,100462.31
2023-05-12T19:39:28.970Z,100441.22
2023-05-12T19:41:55.876Z,100459.06
2023-05-12T19:44:22.839Z,100472.19
2023-05-12T19:46:51.228Z,100433.72
2023-05-12T19:49:18.111Z,100480.97
2023-05-12T19:51:45.843Z,100463.41
2023-05-12T19:54:13.381Z,100478.03
2023-05-12T19:56:40.489Z,100419.16
2023-05-12T19:59:07.658Z,100491.34
2023-05-12T20:01:36.849Z,100466.56
2023-05-12T20:04:04.947Z,100483.75
2023-05-12T20:06:32.310Z,100477.28
2023-05-12T20:08:59.682Z,100482.78
2023-05-12T20:11:29.036Z,100446.56
2023-05-12T20:13:57.177Z,100493.44
2023-05-12T20:16:25.193Z,100494.75
2023-05-12T20:18:53.034Z,100491.78
2023-05-12T20:21:21.797Z,100512.25
2023-05-12T20:23:49.788Z,100501.38
2023-05-12T20:26:23.884Z,100481.91
2023-05-12T20:28:53.018Z,100496.66
2023-05-12T20:31:22.184Z,100478.50
2023-05-12T20:33:53.004Z,100511.28
2023-05-12T20:36:31.573Z,100474.94
2023-05-12T20:39:00.530Z,100504.63
2023-05-12T20:41:30.146Z,100507.03
2023-05-12T20:43:58.662Z,100494.41
2023-05-12T20:46:26.432Z,100486.28
2023-05-12T20:48:53.509Z,100502.03
2023-05-12T20:51:21.967Z,100496.03
2023-05-12T20:53:49.029Z,100509.28
2023-05-12T20:56:15.857Z,100488.75
2023-05-12T20:58:43.797Z,100509.16
2023-05-12T21:01:11.612Z,100497.63
2023-05-12T21:03:38.492Z,100509.31
2023-05-12T21:06:05.606Z,100521.66
2023-05-12T21:08:32.739Z,100511.28
2023-05-12T21:11:00.164Z,100514.69
2023-05-12T21:13:27.450Z,100523.63
2023-05-12T21:15:54.255Z,100528.13
2023-05-12T21:18:23.259Z,100518.56
2023-05-12T21:20:50.119Z,100522.00
2023-05-12T21:23:16.930Z,100522.75
2023-05-12T21:25:44.746Z,100520.47
2023-05-12T21:28:11.535Z,100493.06
2023-05-12T21:30:38.349Z,100483.13
2023-05-12T21:33:05.916Z,100503.78
2023-05-12T21:35:32.765Z,100532.97
2023-05-12T21:38:01.199Z,100478.09
2023-05-12T21:40:30.097Z,100532.97
2023-05-12T21:42:57.735Z,100472.84
2023-05-12T21:45:25.096Z,100528.72
2023-05-12T21:47:52.321Z,100531.16
2023-05-12T21:50:22.024Z,100534.06
2023-05-12T21:52:50.024Z,100549.00
2023-05-12T21:55:18.059Z,100526.41
2023-05-12T21:57:45.934Z,100543.09
2023-05-12T22:00:15.126Z,100522.50
2023-05-12T22:02:42.187Z,100555.22
2023-05-12T22:05:09.786Z,100548.44
2023-05-12T22:07:36.710Z,100555.22
2023-05-12T22:10:04.706Z,100545.84
2023-05-12T22:12:31.534Z,100531.66
2023-05-12T22:14:59.178Z,100528.09
2023-05-12T22:17:26.504Z,100552.47
2023-05-12T22:19:53.881Z,100539.00
2023-05-12T22:22:22.544Z,100562.69
2023-05-12T22:24:49.716Z,100552.31
2023-05-12T22:27:22.024Z,100558.16
2023-05-12T22:29:49.271Z,100521.88
2023-05-12T22:32:16.640Z,100556.78
2023-05-12T22:34:43.538Z,100526.75
2023-05-12T22:37:10.364Z,100560.03
2023-05-12T22:39:37.289Z,100567.66
2023-05-12T22:42:06.155Z,100549.84
2023-05-12T22:44:33.327Z,100532.75
2023-05-12T22:47:00.455Z,100518.16
2023-05-12T22:49:27.444Z,100546.56
2023-05-12T22:51:54.381Z,100542.22
2023-05-12T22:54:21.189Z,100535.56
2023-05-12T22:56:48.031Z,100526.31
2023-05-12T22:59:15.380Z,100463.91
2023-05-12T23:01:42.346Z,100530.84
2023-05-12T23:04:09.458Z,100510.38
2023-05-12T23:06:36.411Z,100471.03
2023-05-12T23:09:03.765Z,100533.94
2023-05-12T23:11:30.595Z,100474.13
2023-05-12T23:13:57.881Z,100473.00
2023-05-12T23:16:25.613Z,100496.75
2023-05-12T23:18:52.506Z,100488.75
2023-05-12T23:21:19.561Z,100515.59
2023-05-12T23:23:46.480Z,100535.09
2023-05-12T23:26:13.506Z,100534.94
2023-05-12T23:28:40.542Z,100551.97
2023-05-12T23:31:07.396Z,100517.25
2023-05-12T23:33:34.479Z,100544.97
2023-05-12T23:36:03.168Z,100519.34
2023-05-12T23:38:30.368Z,100496.16
2023-05-12T23:40:57.184Z,100478.06
2023-05-12T23:43:24.231Z,100482.13
2023-05-12T23:45:51.199Z,100504.25
2023-05-12T23:48:20.091Z,100482.13
2023-05-12T23:50:47.318Z,100505.88
2023-05-12T23:53:14.126Z,100515.44
2023-05-12T23:55:41.149Z,100520.81
2023-05-12T23:58:10.724Z,100514.00
